createdAt,value
2022-08-27T00:02:22.284Z,11.13
2022-08-27T00:04:52.519Z,10.50
2022-08-27T00:07:21.092Z,10.82
2022-08-27T00:09:49.560Z,11.25
2022-08-27T00:12:18.052Z,11.68
2022-08-27T00:14:46.769Z,11.88
2022-08-27T00:17:15.999Z,12.52
2022-08-27T00:19:45.206Z,11.65
2022-08-27T00:22:15.622Z,11.68
2022-08-27T00:24:48.610Z,11.95
2022-08-27T00:27:17.978Z,12.25
2022-08-27T00:29:46.506Z,11.65
2022-08-27T00:32:15.259Z,12.95
2022-08-27T00:34:43.781Z,12.10
2022-08-27T00:37:12.476Z,12.00
2022-08-27T00:39:42.878Z,11.55
2022-08-27T00:42:11.529Z,11.90
2022-08-27T00:44:40.641Z,12.30
2022-08-27T00:47:14.133Z,13.20
2022-08-27T00:49:46.498Z,12.00
2022-08-27T00:52:20.305Z,12.55
2022-08-27T00:54:51.480Z,12.25
2022-08-27T00:57:20.629Z,11.85
2022-08-27T00:59:49.703Z,12.63
2022-08-27T01:02:21.174Z,12.45
2022-08-27T01:04:53.159Z,12.93
2022-08-27T01:07:23.267Z,12.35
2022-08-27T01:09:54.793Z,11.93
2022-08-27T01:12:23.492Z,12.32
2022-08-27T01:14:53.205Z,11.88
2022-08-27T01:17:21.744Z,11.55
2022-08-27T01:19:54.541Z,11.77
2022-08-27T01:22:31.613Z,13.13
2022-08-27T01:25:06.345Z,11.43
2022-08-27T01:27:35.106Z,11.55
2022-08-27T01:30:04.261Z,11.95
2022-08-27T01:32:34.870Z,11.93
2022-08-27T01:35:05.735Z,12.60
2022-08-27T01:37:34.594Z,11.93
2022-08-27T01:40:06.045Z,12.10
2022-08-27T01:42:38.504Z,12.45
2022-08-27T01:45:10.270Z,12.65
2022-08-27T01:47:39.328Z,12.73
2022-08-27T01:50:12.240Z,11.98
2022-08-27T01:52:40.785Z,13.23
2022-08-27T01:55:14.025Z,12.65
2022-08-27T01:57:43.180Z,14.65
2022-08-27T02:00:16.400Z,14.85
2022-08-27T02:02:45.424Z,14.52
2022-08-27T02:05:14.441Z,15.45
2022-08-27T02:07:43.658Z,14.55
2022-08-27T02:10:19.743Z,16.52
2022-08-27T02:12:53.224Z,16.30
2022-08-27T02:15:22.689Z,16.38
2022-08-27T02:17:51.556Z,16.25
2022-08-27T02:20:20.584Z,17.25
2022-08-27T02:22:49.871Z,17.52
2022-08-27T02:25:21.896Z,17.50
2022-08-27T02:27:51.901Z,17.55
2022-08-27T02:30:24.384Z,18.27
2022-08-27T02:32:53.224Z,20.63
2022-08-27T02:35:23.772Z,20.55
2022-08-27T02:37:53.180Z,19.85
2022-08-27T02:40:24.820Z,20.85
2022-08-27T02:42:53.790Z,20.98
2022-08-27T02:45:23.164Z,22.73
2022-08-27T02:47:51.641Z,21.85
2022-08-27T02:50:20.107Z,23.45
2022-08-27T02:52:48.831Z,20.80
2022-08-27T02:55:17.554Z,20.23
2022-08-27T02:57:48.955Z,21.75
2022-08-27T03:00:21.096Z,21.58
2022-08-27T03:02:49.997Z,21.75
2022-08-27T03:05:19.623Z,21.45
2022-08-27T03:07:48.589Z,23.17
2022-08-27T03:10:19.489Z,22.45
2022-08-27T03:12:49.978Z,23.42
2022-08-27T03:15:20.362Z,23.13
2022-08-27T03:18:06.310Z,23.20
2022-08-27T03:20:35.348Z,22.92
2022-08-27T03:23:03.758Z,21.50
2022-08-27T03:25:33.956Z,18.83
2022-08-27T03:28:04.381Z,17.33
2022-08-27T03:30:38.129Z,18.00
2022-08-27T03:33:08.320Z,17.83
2022-08-27T03:35:37.087Z,17.83
2022-08-27T03:38:05.741Z,16.08
2022-08-27T03:40:34.689Z,16.92
2022-08-27T03:43:04.885Z,16.85
2022-08-27T03:45:48.539Z,17.27
2022-08-27T03:48:21.946Z,17.55
2022-08-27T03:50:52.215Z,16.85
2022-08-27T03:53:21.790Z,17.25
2022-08-27T03:55:51.145Z,15.60
2022-08-27T03:58:21.335Z,15.93
2022-08-27T04:00:49.859Z,15.65
2022-08-27T04:03:18.320Z,14.80
2022-08-27T04:05:46.915Z,15.07
2022-08-27T04:08:15.358Z,13.95
2022-08-27T04:10:43.888Z,14.93
2022-08-27T04:13:12.462Z,14.38
2022-08-27T04:15:46.247Z,15.32
2022-08-27T04:18:16.690Z,14.68
2022-08-27T04:20:45.696Z,15.60
2022-08-27T04:23:14.454Z,15.35
2022-08-27T04:25:43.973Z,16.10
2022-08-27T04:28:13.856Z,15.80
2022-08-27T04:30:44.556Z,15.65
2022-08-27T04:33:15.463Z,15.63
2022-08-27T04:35:44.640Z,14.98
2022-08-27T04:38:13.405Z,15.05
2022-08-27T04:40:59.055Z,15.35
2022-08-27T04:43:28.802Z,15.48
2022-08-27T04:45:57.300Z,16.63
2022-08-27T04:48:27.986Z,14.00
2022-08-27T04:50:56.513Z,14.60
2022-08-27T04:53:25.423Z,13.82
2022-08-27T04:55:56.828Z,13.48
2022-08-27T04:58:26.600Z,15.43
2022-08-27T05:00:58.295Z,14.52
2022-08-27T05:03:29.478Z,15.10
2022-08-27T05:06:02.593Z,15.27
2022-08-27T05:08:32.509Z,13.73
2022-08-27T05:11:02.002Z,13.40
2022-08-27T05:13:31.050Z,13.90
2022-08-27T05:16:01.736Z,14.85
2022-08-27T05:18:36.308Z,14.23
2022-08-27T05:21:12.738Z,15.20
2022-08-27T05:23:41.481Z,15.77
2022-08-27T05:26:10.298Z,15.20
2022-08-27T05:28:38.980Z,15.55
2022-08-27T05:31:12.552Z,14.95
2022-08-27T05:36:17.384Z,13.63
2022-08-27T05:38:46.253Z,14.48
2022-08-27T05:41:17.823Z,14.25
2022-08-27T05:43:50.108Z,14.48
2022-08-27T05:46:21.226Z,16.35
2022-08-27T05:48:52.499Z,14.57
2022-08-27T05:51:25.946Z,14.70
2022-08-27T05:53:57.177Z,14.60
2022-08-27T05:56:27.914Z,14.43
2022-08-27T05:59:14.112Z,14.70
2022-08-27T06:01:45.152Z,14.32
2022-08-27T06:04:17.501Z,13.90
2022-08-27T06:06:47.527Z,14.05
2022-08-27T06:09:20.076Z,14.05
2022-08-27T06:11:49.033Z,13.05
2022-08-27T06:14:17.762Z,12.65
2022-08-27T06:16:46.177Z,13.02
2022-08-27T06:19:16.708Z,12.05
2022-08-27T06:21:45.563Z,12.27
2022-08-27T06:24:15.000Z,12.77
2022-08-27T06:26:45.473Z,11.50
2022-08-27T06:29:15.013Z,11.18
2022-08-27T06:31:44.292Z,10.90
2022-08-27T06:34:13.005Z,11.23
2022-08-27T06:36:43.905Z,11.15
2022-08-27T06:39:17.055Z,9.65
2022-08-27T06:41:46.282Z,9.90
2022-08-27T06:44:15.664Z,9.40
2022-08-27T06:46:45.109Z,9.68
2022-08-27T06:49:13.713Z,10.32
2022-08-27T06:51:47.140Z,10.40
2022-08-27T06:54:16.905Z,9.40
2022-08-27T06:56:46.068Z,10.07
2022-08-27T06:59:17.354Z,11.00
2022-08-27T07:01:48.881Z,9.73
2022-08-27T07:04:22.104Z,11.45
2022-08-27T07:06:52.225Z,14.10
2022-08-27T07:09:21.877Z,11.75
2022-08-27T07:11:50.365Z,11.27
2022-08-27T07:14:19.274Z,11.48
2022-08-27T07:16:48.333Z,11.07
2022-08-27T07:19:19.125Z,11.90
2022-08-27T07:21:49.719Z,12.75
2022-08-27T07:24:19.847Z,13.27
2022-08-27T07:26:49.045Z,12.43
2022-08-27T07:29:17.709Z,12.50
2022-08-27T07:31:46.149Z,11.68
2022-08-27T07:34:14.781Z,12.77
2022-08-27T07:36:43.317Z,12.20
2022-08-27T07:39:14.079Z,13.30
2022-08-27T07:42:01.412Z,12.18
2022-08-27T07:44:34.270Z,12.98
2022-08-27T07:47:03.671Z,12.70
2022-08-27T07:49:35.212Z,13.35
2022-08-27T07:52:04.352Z,12.55
2022-08-27T07:54:32.843Z,13.50
2022-08-27T07:57:02.914Z,12.68
2022-08-27T07:59:31.565Z,12.20
2022-08-27T08:02:00.065Z,12.48
2022-08-27T08:04:29.245Z,12.63
2022-08-27T08:06:58.041Z,12.73
2022-08-27T08:09:27.193Z,13.05
2022-08-27T08:11:55.707Z,13.38
2022-08-27T08:14:26.103Z,14.25
2022-08-27T08:16:54.679Z,13.68
2022-08-27T08:19:23.229Z,13.52
2022-08-27T08:21:57.245Z,13.52
2022-08-27T08:24:29.155Z,13.82
2022-08-27T08:26:57.598Z,13.30
2022-08-27T08:29:27.659Z,13.60
2022-08-27T08:31:56.244Z,12.93
2022-08-27T08:34:24.854Z,13.70
2022-08-27T08:36:55.158Z,12.88
2022-08-27T08:39:24.553Z,13.60
2022-08-27T08:41:56.070Z,14.65
2022-08-27T08:44:32.804Z,14.07
2022-08-27T08:47:16.198Z,14.90
2022-08-27T08:49:51.160Z,14.93
2022-08-27T08:52:32.330Z,13.60
2022-08-27T08:55:09.806Z,13.93
2022-08-27T08:57:43.845Z,14.10
2022-08-27T09:00:15.956Z,13.02
2022-08-27T09:02:52.786Z,13.18
2022-08-27T09:05:24.075Z,15.25
2022-08-27T09:08:34.104Z,13.45
2022-08-27T09:11:01.417Z,12.70
2022-08-27T09:13:34.894Z,12.40
2022-08-27T09:16:06.530Z,11.50
2022-08-27T09:18:38.313Z,12.43
2022-08-27T09:21:19.639Z,12.07
2022-08-27T09:24:05.671Z,10.80
2022-08-27T09:26:38.318Z,10.07
2022-08-27T09:29:20.509Z,11.43
2022-08-27T09:32:00.123Z,11.32
2022-08-27T09:34:37.100Z,10.57
2022-08-27T09:37:11.755Z,10.07
2022-08-27T09:39:50.226Z,9.85
2022-08-27T09:42:31.046Z,9.00
2022-08-27T09:45:01.498Z,10.38
2022-08-27T09:47:31.636Z,9.00
2022-08-27T09:50:07.068Z,9.75
2022-08-27T09:52:39.099Z,10.02
2022-08-27T09:55:08.676Z,9.90
2022-08-27T09:57:41.901Z,10.48
2022-08-27T10:00:17.205Z,9.82
2022-08-27T10:02:55.213Z,10.25
2022-08-27T10:05:30.484Z,10.32
2022-08-27T10:08:04.066Z,10.00
2022-08-27T10:13:15.503Z,10.07
2022-08-27T10:15:56.176Z,9.38
2022-08-27T10:18:37.701Z,9.45
2022-08-27T10:21:15.695Z,10.00
2022-08-27T10:23:53.020Z,10.90
2022-08-27T10:26:33.689Z,10.77
2022-08-27T10:29:14.218Z,10.13
2022-08-27T10:32:04.655Z,9.93
2022-08-27T10:34:46.681Z,9.70
2022-08-27T10:37:36.788Z,9.27
2022-08-27T10:40:18.206Z,9.70
2022-08-27T10:42:57.489Z,9.77
2022-08-27T10:45:42.765Z,9.85
2022-08-27T10:48:24.832Z,9.00
2022-08-27T10:51:05.963Z,9.18
2022-08-27T10:53:44.392Z,9.13
2022-08-27T10:56:20.990Z,9.82
2022-08-27T10:59:04.072Z,9.48
2022-08-27T11:01:44.136Z,9.18
2022-08-27T11:04:16.868Z,9.68
2022-08-27T11:06:52.541Z,8.93
2022-08-27T11:09:24.108Z,9.30
2022-08-27T11:12:13.969Z,8.70
2022-08-27T11:14:51.348Z,9.38
2022-08-27T11:17:33.026Z,8.95
2022-08-27T11:20:09.757Z,7.95
2022-08-27T11:22:46.744Z,7.85
2022-08-27T11:25:37.669Z,8.73
2022-08-27T11:28:08.669Z,8.57
2022-08-27T11:30:51.457Z,7.13
2022-08-27T11:33:26.820Z,7.80
2022-08-27T11:36:21.407Z,7.82
2022-08-27T11:38:56.653Z,7.40
2022-08-27T11:41:53.920Z,8.00
2022-08-27T11:44:26.932Z,6.53
2022-08-27T11:46:58.834Z,7.22
2022-08-27T11:49:32.212Z,7.57
2022-08-27T11:52:05.713Z,7.40
2022-08-27T11:57:29.810Z,6.82
2022-08-27T12:00:01.815Z,7.67
2022-08-27T12:02:32.160Z,7.60
2022-08-27T12:05:13.468Z,7.22
2022-08-27T12:07:49.698Z,7.93
2022-08-27T12:10:41.107Z,7.20
2022-08-27T12:13:23.056Z,6.93
2022-08-27T12:16:03.323Z,6.82
2022-08-27T12:18:45.713Z,6.18
2022-08-27T12:21:22.342Z,6.75
2022-08-27T12:24:12.194Z,6.82
2022-08-27T12:26:44.038Z,6.35
2022-08-27T12:29:43.969Z,6.90
2022-08-27T12:32:26.421Z,6.57
2022-08-27T12:35:03.425Z,7.38
2022-08-27T12:37:36.545Z,7.68
2022-08-27T12:40:15.120Z,7.20
2022-08-27T12:42:49.964Z,6.78
2022-08-27T12:45:24.594Z,6.60
2022-08-27T12:47:55.350Z,7.85
2022-08-27T12:50:29.900Z,7.60
2022-08-27T12:53:23.715Z,7.47
2022-08-27T12:56:04.369Z,7.25
2022-08-27T12:58:45.245Z,7.28
2022-08-27T13:01:32.648Z,8.15
2022-08-27T13:04:02.342Z,7.10
2022-08-27T13:06:33.871Z,7.90
2022-08-27T13:09:04.972Z,7.78
2022-08-27T13:11:36.790Z,7.68
2022-08-27T13:14:13.425Z,8.23
2022-08-27T13:16:48.830Z,7.13
2022-08-27T13:19:23.072Z,7.25
2022-08-27T13:21:52.853Z,8.23
2022-08-27T13:24:28.197Z,8.15
2022-08-27T13:26:57.819Z,7.72
2022-08-27T13:29:28.664Z,8.38
2022-08-27T13:31:58.633Z,7.65
2022-08-27T13:34:29.857Z,8.10
2022-08-27T13:37:00.471Z,8.70
2022-08-27T13:39:30.463Z,8.60
2022-08-27T13:42:01.766Z,8.80
2022-08-27T13:44:37.276Z,9.05
2022-08-27T13:47:09.849Z,9.15
2022-08-27T13:49:42.223Z,8.82
2022-08-27T13:52:25.899Z,9.48
2022-08-27T13:55:00.671Z,9.38
2022-08-27T13:57:31.535Z,9.20
2022-08-27T14:00:15.808Z,9.23
2022-08-27T14:02:55.545Z,9.75
2022-08-27T14:05:31.342Z,9.57
2022-08-27T14:08:01.577Z,8.98
2022-08-27T14:10:34.984Z,9.18
2022-08-27T14:13:07.692Z,9.98
2022-08-27T14:15:40.291Z,10.53
2022-08-27T14:18:32.096Z,10.23
2022-08-27T14:21:10.744Z,9.50
2022-08-27T14:23:39.197Z,9.68
2022-08-27T14:26:10.149Z,10.10
2022-08-27T14:28:38.684Z,10.43
2022-08-27T14:31:08.801Z,9.82
2022-08-27T14:33:38.104Z,9.07
2022-08-27T14:36:08.453Z,9.65
2022-08-27T14:38:40.842Z,10.88
2022-08-27T14:41:09.931Z,11.27
2022-08-27T14:43:38.601Z,10.02
2022-08-27T14:46:12.971Z,9.50
2022-08-27T14:48:51.476Z,9.25
2022-08-27T14:51:25.152Z,9.52
2022-08-27T14:53:54.124Z,10.32
2022-08-27T14:56:23.706Z,8.90
2022-08-27T14:58:53.808Z,10.07
2022-08-27T15:01:26.463Z,9.25
2022-08-27T15:03:56.100Z,10.13
2022-08-27T15:06:27.291Z,10.15
2022-08-27T15:08:56.140Z,9.05
2022-08-27T15:11:28.192Z,10.30
2022-08-27T15:13:58.254Z,10.45
2022-08-27T15:16:33.853Z,9.88
2022-08-27T15:19:08.456Z,9.45
2022-08-27T15:21:49.923Z,10.35
2022-08-27T15:24:29.668Z,9.80
2022-08-27T15:27:05.399Z,12.43
2022-08-27T15:29:38.651Z,16.83
2022-08-27T15:32:18.031Z,11.88
2022-08-27T15:34:49.558Z,9.45
2022-08-27T15:37:18.059Z,9.95
2022-08-27T15:39:46.568Z,9.20
2022-08-27T15:42:15.501Z,9.15
2022-08-27T15:44:47.066Z,9.30
2022-08-27T15:47:19.712Z,9.30
2022-08-27T15:49:48.609Z,9.80
2022-08-27T15:52:19.448Z,9.55
2022-08-27T15:54:50.655Z,10.20
2022-08-27T15:57:20.497Z,10.00
2022-08-27T15:59:49.856Z,9.25
2022-08-27T16:02:22.064Z,10.18
2022-08-27T16:04:51.228Z,9.70
2022-08-27T16:07:21.464Z,9.60
2022-08-27T16:09:50.588Z,9.98
2022-08-27T16:12:26.999Z,10.65
2022-08-27T16:14:56.849Z,11.10
2022-08-27T16:17:27.856Z,10.57
2022-08-27T16:19:56.883Z,11.05
2022-08-27T16:22:26.394Z,9.65
2022-08-27T16:24:55.203Z,10.20
2022-08-27T16:27:26.562Z,10.00
2022-08-27T16:29:58.237Z,10.68
2022-08-27T16:32:30.119Z,10.20
2022-08-27T16:35:00.758Z,9.98
2022-08-27T16:37:29.233Z,10.13
2022-08-27T16:39:58.506Z,9.90
2022-08-27T16:42:27.048Z,10.32
2022-08-27T16:44:55.644Z,11.68
2022-08-27T16:47:24.082Z,11.70
2022-08-27T16:50:11.833Z,11.88
2022-08-27T16:52:52.899Z,12.30
2022-08-27T16:55:21.668Z,11.38
2022-08-27T16:57:51.145Z,12.50
2022-08-27T17:00:20.774Z,13.48
2022-08-27T17:02:49.278Z,12.07
2022-08-27T17:05:35.474Z,12.60
2022-08-27T17:08:05.609Z,12.43
2022-08-27T17:10:41.332Z,13.65
2022-08-27T17:13:10.713Z,13.75
2022-08-27T17:15:39.760Z,13.48
2022-08-27T17:18:08.588Z,12.88
2022-08-27T17:20:38.930Z,13.32
2022-08-27T17:23:09.593Z,12.57
2022-08-27T17:25:38.276Z,13.02
2022-08-27T17:28:07.806Z,12.35
2022-08-27T17:30:36.680Z,12.43
2022-08-27T17:33:05.410Z,13.20
2022-08-27T17:35:34.638Z,11.95
2022-08-27T17:38:05.445Z,11.05
2022-08-27T17:40:34.229Z,10.90
2022-08-27T17:43:03.162Z,11.48
2022-08-27T17:45:31.851Z,10.85
2022-08-27T17:48:00.738Z,10.30
2022-08-27T17:50:41.076Z,10.75
2022-08-27T17:53:11.477Z,10.55
2022-08-27T17:55:40.114Z,10.07
2022-08-27T17:58:09.988Z,9.95
2022-08-27T18:00:40.909Z,10.30
2022-08-27T18:03:18.000Z,10.35
2022-08-27T18:05:48.519Z,9.45
2022-08-27T18:08:20.558Z,10.18
2022-08-27T18:10:49.778Z,10.02
2022-08-27T18:13:20.602Z,10.13
2022-08-27T18:15:50.848Z,9.82
2022-08-27T18:18:19.858Z,10.82
2022-08-27T18:20:49.158Z,9.80
2022-08-27T18:23:23.012Z,9.95
2022-08-27T18:25:52.158Z,10.82
2022-08-27T18:28:22.420Z,9.93
2022-08-27T18:30:51.714Z,10.00
2022-08-27T18:33:20.370Z,9.88
2022-08-27T18:35:50.175Z,10.25
2022-08-27T18:38:21.870Z,10.20
2022-08-27T18:40:55.239Z,10.73
2022-08-27T18:43:29.745Z,11.15
2022-08-27T18:45:58.656Z,10.68
2022-08-27T18:48:27.509Z,10.88
2022-08-27T18:50:59.023Z,10.98
2022-08-27T18:53:32.460Z,11.30
2022-08-27T18:56:02.059Z,11.60
2022-08-27T18:58:31.764Z,12.23
2022-08-27T19:01:03.904Z,10.88
2022-08-27T19:03:35.247Z,11.15
2022-08-27T19:06:08.740Z,11.02
2022-08-27T19:08:40.744Z,11.25
2022-08-27T19:11:10.679Z,11.63
2022-08-27T19:13:39.934Z,12.07
2022-08-27T19:16:13.943Z,10.93
2022-08-27T19:18:43.441Z,11.40
2022-08-27T19:21:12.689Z,11.57
2022-08-27T19:23:43.423Z,11.25
2022-08-27T19:26:17.291Z,11.43
2022-08-27T19:28:46.832Z,11.95
2022-08-27T19:31:16.126Z,12.27
2022-08-27T19:33:47.258Z,12.13
2022-08-27T19:36:20.680Z,12.55
2022-08-27T19:38:52.861Z,11.65
2022-08-27T19:41:27.195Z,11.75
2022-08-27T19:46:57.984Z,11.75
2022-08-27T19:49:27.101Z,12.45
2022-08-27T19:51:56.094Z,11.57
2022-08-27T19:54:26.501Z,12.88
2022-08-27T19:57:02.602Z,12.00
2022-08-27T19:59:31.419Z,12.18
2022-08-27T20:01:59.843Z,12.15
2022-08-27T20:04:32.930Z,12.10
2022-08-27T20:07:03.801Z,12.18
2022-08-27T20:09:34.403Z,12.05
2022-08-27T20:12:04.127Z,12.52
2022-08-27T20:14:34.189Z,13.20
2022-08-27T20:17:08.171Z,12.05
2022-08-27T20:19:38.781Z,11.45
2022-08-27T20:22:08.807Z,11.75
2022-08-27T20:24:40.197Z,12.38
2022-08-27T20:27:10.128Z,11.55
2022-08-27T20:29:42.237Z,12.90
2022-08-27T20:32:13.584Z,10.98
2022-08-27T20:34:43.746Z,12.00
2022-08-27T20:37:13.972Z,12.60
2022-08-27T20:42:40.119Z,11.60
2022-08-27T20:45:12.424Z,11.57
2022-08-27T20:47:46.967Z,12.25
2022-08-27T20:50:16.918Z,12.00
2022-08-27T20:52:45.861Z,12.75
2022-08-27T20:55:15.829Z,12.15
2022-08-27T20:58:06.702Z,12.80
2022-08-27T21:00:38.283Z,12.38
2022-08-27T21:03:07.925Z,13.20
2022-08-27T21:05:37.414Z,12.75
2022-08-27T21:08:07.787Z,12.13
2022-08-27T21:10:36.978Z,12.23
2022-08-27T21:13:08.890Z,12.95
2022-08-27T21:15:41.057Z,12.68
2022-08-27T21:18:09.808Z,11.68
2022-08-27T21:20:38.586Z,11.43
2022-08-27T21:23:07.658Z,11.52
2022-08-27T21:25:37.246Z,12.38
2022-08-27T21:28:07.632Z,11.30
2022-08-27T21:30:36.257Z,11.63
2022-08-27T21:33:06.638Z,11.60
2022-08-27T21:35:35.120Z,11.82
2022-08-27T21:38:04.005Z,10.98
2022-08-27T21:40:33.254Z,10.98
2022-08-27T21:43:02.380Z,11.43
2022-08-27T21:45:30.906Z,11.73
2022-08-27T21:47:59.325Z,11.60
2022-08-27T21:50:29.741Z,11.95
2022-08-27T21:52:58.297Z,11.10
2022-08-27T21:55:26.941Z,11.35
2022-08-27T21:57:55.449Z,10.73
2022-08-27T22:00:43.934Z,11.18
2022-08-27T22:03:20.052Z,10.48
2022-08-27T22:05:50.625Z,11.25
2022-08-27T22:08:21.002Z,11.73
2022-08-27T22:10:52.692Z,11.25
2022-08-27T22:13:22.789Z,11.02
2022-08-27T22:15:51.465Z,11.48
2022-08-27T22:18:23.091Z,11.30
2022-08-27T22:20:54.544Z,10.02
2022-08-27T22:23:23.359Z,10.10
2022-08-27T22:25:51.945Z,10.27
2022-08-27T22:28:21.025Z,10.13
2022-08-27T22:30:49.486Z,9.80
2022-08-27T22:33:19.286Z,9.52
2022-08-27T22:35:47.713Z,8.77
2022-08-27T22:38:18.274Z,9.38
2022-08-27T22:40:46.778Z,8.85
2022-08-27T22:43:16.215Z,8.57
2022-08-27T22:45:44.759Z,8.80
2022-08-27T22:48:13.623Z,8.70
2022-08-27T22:50:42.423Z,9.02
2022-08-27T22:53:12.221Z,9.57
2022-08-27T22:55:43.907Z,7.63
2022-08-27T22:58:15.674Z,7.53
2022-08-27T23:00:52.237Z,7.85
2022-08-27T23:03:21.350Z,7.13
2022-08-27T23:05:50.060Z,6.63
2022-08-27T23:08:18.904Z,6.90
2022-08-27T23:10:48.762Z,6.60
2022-08-27T23:13:17.649Z,6.90
2022-08-27T23:15:46.113Z,6.40
2022-08-27T23:18:14.932Z,6.50
2022-08-27T23:20:43.597Z,5.78
2022-08-27T23:23:12.153Z,5.68
2022-08-27T23:25:57.804Z,5.35
2022-08-27T23:28:27.766Z,4.75
2022-08-27T23:30:56.371Z,4.60
2022-08-27T23:33:25.371Z,4.35
2022-08-27T23:35:53.873Z,4.10
2022-08-27T23:38:23.513Z,4.78
2022-08-27T23:40:52.474Z,5.22
2022-08-27T23:43:22.434Z,5.00
2022-08-27T23:45:52.650Z,4.25
2022-08-27T23:48:21.925Z,5.22
2022-08-27T23:50:50.711Z,4.85
2022-08-27T23:53:19.196Z,4.68
2022-08-27T23:55:47.704Z,5.05
2022-08-27T23:58:16.201Z,5.65
